sensor_id;sensor_type;location;lat;lon;timestamp;P1;durP1;ratioP1;P2;durP2;ratioP2
10497;SDS011;5296;51.060;13.750;2023-01-19T00:01:25;12.33;;;9.10;;
10497;SDS011;5296;51.060;13.750;2023-01-19T00:06:26;13.77;;;9.37;;
10497;SDS011;5296;51.060;13.750;2023-01-19T00:11:28;13.03;;;9.03;;
10497;SDS011;5296;51.060;13.750;2023-01-19T00:16:30;13.03;;;9.57;;
10497;SDS011;5296;51.060;13.750;2023-01-19T00:21:32;15.20;;;9.67;;
10497;SDS011;5296;51.060;13.750;2023-01-19T00:26:33;12.67;;;9.50;;
10497;SDS011;5296;51.060;13.750;2023-01-19T00:31:35;14.90;;;10.07;;
10497;SDS011;5296;51.060;13.750;2023-01-19T00:36:37;13.67;;;9.10;;
10497;SDS011;5296;51.060;13.750;2023-01-19T00:41:38;14.17;;;8.97;;
10497;SDS011;5296;51.060;13.750;2023-01-19T00:46:58;11.43;;;9.40;;
10497;SDS011;5296;51.060;13.750;2023-01-19T00:52:01;14.13;;;9.60;;
10497;SDS011;5296;51.060;13.750;2023-01-19T00:57:02;12.50;;;9.00;;
10497;SDS011;5296;51.060;13.750;2023-01-19T01:02:04;10.77;;;8.23;;
10497;SDS011;5296;51.060;13.750;2023-01-19T01:07:06;14.00;;;8.27;;
10497;SDS011;5296;51.060;13.750;2023-01-19T01:12:08;11.87;;;8.83;;
10497;SDS011;5296;51.060;13.750;2023-01-19T01:17:09;10.17;;;8.13;;
10497;SDS011;5296;51.060;13.750;2023-01-19T01:22:11;11.80;;;8.87;;
10497;SDS011;5296;51.060;13.750;2023-01-19T01:27:13;10.57;;;7.93;;
10497;SDS011;5296;51.060;13.750;2023-01-19T01:32:15;9.53;;;8.37;;
10497;SDS011;5296;51.060;13.750;2023-01-19T01:37:17;9.90;;;7.53;;
10497;SDS011;5296;51.060;13.750;2023-01-19T01:42:19;11.80;;;8.23;;
10497;SDS011;5296;51.060;13.750;2023-01-19T01:52:38;11.00;;;8.00;;
10497;SDS011;5296;51.060;13.750;2023-01-19T01:58:03;11.43;;;8.10;;
10497;SDS011;5296;51.060;13.750;2023-01-19T02:03:05;10.57;;;8.20;;
10497;SDS011;5296;51.060;13.750;2023-01-19T02:13:46;9.83;;;7.80;;
10497;SDS011;5296;51.060;13.750;2023-01-19T02:18:48;10.80;;;8.37;;
10497;SDS011;5296;51.060;13.750;2023-01-19T02:23:51;13.17;;;9.20;;
10497;SDS011;5296;51.060;13.750;2023-01-19T02:28:58;11.40;;;8.60;;
10497;SDS011;5296;51.060;13.750;2023-01-19T02:34:01;10.47;;;8.40;;
10497;SDS011;5296;51.060;13.750;2023-01-19T02:39:03;10.90;;;8.30;;
10497;SDS011;5296;51.060;13.750;2023-01-19T02:44:06;10.83;;;8.20;;
10497;SDS011;5296;51.060;13.750;2023-01-19T02:49:09;10.30;;;8.33;;
10497;SDS011;5296;51.060;13.750;2023-01-19T03:10:07;9.83;;;7.97;;
10497;SDS011;5296;51.060;13.750;2023-01-19T03:20:24;9.87;;;6.77;;
10497;SDS011;5296;51.060;13.750;2023-01-19T03:25:29;8.67;;;6.87;;
10497;SDS011;5296;51.060;13.750;2023-01-19T03:30:38;8.47;;;6.33;;
10497;SDS011;5296;51.060;13.750;2023-01-19T03:35:43;8.73;;;6.93;;
10497;SDS011;5296;51.060;13.750;2023-01-19T03:40:49;8.53;;;6.27;;
10497;SDS011;5296;51.060;13.750;2023-01-19T03:45:52;8.87;;;6.43;;
10497;SDS011;5296;51.060;13.750;2023-01-19T03:50:55;9.33;;;6.83;;
10497;SDS011;5296;51.060;13.750;2023-01-19T03:55:57;8.90;;;6.50;;
10497;SDS011;5296;51.060;13.750;2023-01-19T04:00:58;8.67;;;6.47;;
10497;SDS011;5296;51.060;13.750;2023-01-19T04:06:00;10.07;;;7.40;;
10497;SDS011;5296;51.060;13.750;2023-01-19T04:11:02;9.87;;;7.10;;
10497;SDS011;5296;51.060;13.750;2023-01-19T04:16:05;10.87;;;7.30;;
10497;SDS011;5296;51.060;13.750;2023-01-19T04:21:07;11.23;;;7.27;;
10497;SDS011;5296;51.060;13.750;2023-01-19T04:26:09;9.33;;;6.93;;
10497;SDS011;5296;51.060;13.750;2023-01-19T04:31:11;7.77;;;6.53;;
10497;SDS011;5296;51.060;13.750;2023-01-19T04:36:12;12.03;;;7.80;;
10497;SDS011;5296;51.060;13.750;2023-01-19T04:41:14;9.47;;;7.60;;
10497;SDS011;5296;51.060;13.750;2023-01-19T04:46:16;9.13;;;7.03;;
10497;SDS011;5296;51.060;13.750;2023-01-19T04:51:17;9.30;;;6.53;;
10497;SDS011;5296;51.060;13.750;2023-01-19T04:56:19;9.97;;;6.97;;
10497;SDS011;5296;51.060;13.750;2023-01-19T05:01:20;8.47;;;6.57;;
10497;SDS011;5296;51.060;13.750;2023-01-19T05:06:22;7.70;;;6.47;;
10497;SDS011;5296;51.060;13.750;2023-01-19T05:11:24;11.37;;;7.30;;
10497;SDS011;5296;51.060;13.750;2023-01-19T05:16:26;7.90;;;6.50;;
10497;SDS011;5296;51.060;13.750;2023-01-19T05:21:27;9.43;;;6.13;;
10497;SDS011;5296;51.060;13.750;2023-01-19T05:26:29;7.97;;;5.90;;
10497;SDS011;5296;51.060;13.750;2023-01-19T05:31:30;9.37;;;6.33;;
10497;SDS011;5296;51.060;13.750;2023-01-19T05:36:32;11.03;;;7.13;;
10497;SDS011;5296;51.060;13.750;2023-01-19T05:41:34;9.53;;;6.60;;
10497;SDS011;5296;51.060;13.750;2023-01-19T05:46:36;8.77;;;6.50;;
10497;SDS011;5296;51.060;13.750;2023-01-19T05:51:38;7.77;;;5.93;;
10497;SDS011;5296;51.060;13.750;2023-01-19T05:56:41;8.67;;;6.00;;
10497;SDS011;5296;51.060;13.750;2023-01-19T06:01:42;6.50;;;5.80;;
10497;SDS011;5296;51.060;13.750;2023-01-19T06:06:47;8.13;;;6.07;;
10497;SDS011;5296;51.060;13.750;2023-01-19T06:11:50;8.90;;;5.83;;
10497;SDS011;5296;51.060;13.750;2023-01-19T06:16:54;7.90;;;6.40;;
10497;SDS011;5296;51.060;13.750;2023-01-19T06:21:56;8.40;;;7.10;;
10497;SDS011;5296;51.060;13.750;2023-01-19T06:26:57;7.67;;;6.17;;
10497;SDS011;5296;51.060;13.750;2023-01-19T06:32:00;10.83;;;6.77;;
10497;SDS011;5296;51.060;13.750;2023-01-19T06:37:02;6.80;;;6.00;;
10497;SDS011;5296;51.060;13.750;2023-01-19T06:42:04;8.07;;;5.63;;
10497;SDS011;5296;51.060;13.750;2023-01-19T06:47:05;5.60;;;4.80;;
10497;SDS011;5296;51.060;13.750;2023-01-19T06:52:16;6.87;;;5.13;;
10497;SDS011;5296;51.060;13.750;2023-01-19T06:57:18;5.97;;;4.97;;
10497;SDS011;5296;51.060;13.750;2023-01-19T07:02:20;5.93;;;5.20;;
10497;SDS011;5296;51.060;13.750;2023-01-19T07:07:28;6.07;;;5.13;;
10497;SDS011;5296;51.060;13.750;2023-01-19T07:12:30;5.43;;;4.63;;
10497;SDS011;5296;51.060;13.750;2023-01-19T07:17:31;7.63;;;5.40;;
10497;SDS011;5296;51.060;13.750;2023-01-19T07:22:33;5.23;;;4.70;;
10497;SDS011;5296;51.060;13.750;2023-01-19T07:27:35;5.77;;;4.27;;
10497;SDS011;5296;51.060;13.750;2023-01-19T07:32:37;6.73;;;5.13;;
10497;SDS011;5296;51.060;13.750;2023-01-19T07:37:39;5.67;;;4.80;;
10497;SDS011;5296;51.060;13.750;2023-01-19T07:42:47;5.17;;;4.60;;
10497;SDS011;5296;51.060;13.750;2023-01-19T07:47:49;5.70;;;4.67;;
10497;SDS011;5296;51.060;13.750;2023-01-19T07:52:51;4.73;;;4.23;;
10497;SDS011;5296;51.060;13.750;2023-01-19T07:57:53;6.70;;;4.40;;
10497;SDS011;5296;51.060;13.750;2023-01-19T08:02:57;5.60;;;4.30;;
10497;SDS011;5296;51.060;13.750;2023-01-19T08:08:00;4.90;;;4.30;;
10497;SDS011;5296;51.060;13.750;2023-01-19T08:13:02;7.13;;;5.30;;
10497;SDS011;5296;51.060;13.750;2023-01-19T08:18:04;8.27;;;4.63;;
10497;SDS011;5296;51.060;13.750;2023-01-19T08:23:07;4.77;;;4.13;;
10497;SDS011;5296;51.060;13.750;2023-01-19T08:28:09;6.50;;;4.73;;
10497;SDS011;5296;51.060;13.750;2023-01-19T08:33:12;6.77;;;4.80;;
10497;SDS011;5296;51.060;13.750;2023-01-19T08:38:14;6.17;;;4.73;;
10497;SDS011;5296;51.060;13.750;2023-01-19T08:43:17;6.13;;;4.93;;
10497;SDS011;5296;51.060;13.750;2023-01-19T08:48:19;6.03;;;5.30;;
10497;SDS011;5296;51.060;13.750;2023-01-19T08:53:22;6.27;;;4.63;;
10497;SDS011;5296;51.060;13.750;2023-01-19T08:58:24;5.20;;;4.63;;
10497;SDS011;5296;51.060;13.750;2023-01-19T09:03:26;5.37;;;4.67;;
10497;SDS011;5296;51.060;13.750;2023-01-19T09:08:27;5.50;;;4.20;;
10497;SDS011;5296;51.060;13.750;2023-01-19T09:13:29;5.23;;;4.63;;
10497;SDS011;5296;51.060;13.750;2023-01-19T09:18:31;5.77;;;4.83;;
10497;SDS011;5296;51.060;13.750;2023-01-19T09:23:32;7.60;;;5.43;;
10497;SDS011;5296;51.060;13.750;2023-01-19T09:28:34;5.83;;;5.23;;
10497;SDS011;5296;51.060;13.750;2023-01-19T09:33:37;7.00;;;4.83;;
10497;SDS011;5296;51.060;13.750;2023-01-19T09:38:39;7.03;;;4.60;;
10497;SDS011;5296;51.060;13.750;2023-01-19T09:43:52;6.00;;;4.67;;
10497;SDS011;5296;51.060;13.750;2023-01-19T09:48:57;6.93;;;5.27;;
10497;SDS011;5296;51.060;13.750;2023-01-19T09:59:18;5.13;;;4.50;;
10497;SDS011;5296;51.060;13.750;2023-01-19T10:09:37;8.07;;;4.50;;
10497;SDS011;5296;51.060;13.750;2023-01-19T10:20:45;5.77;;;4.73;;
10497;SDS011;5296;51.060;13.750;2023-01-19T10:25:50;5.03;;;4.13;;
10497;SDS011;5296;51.060;13.750;2023-01-19T10:30:55;6.47;;;4.43;;
10497;SDS011;5296;51.060;13.750;2023-01-19T10:35:57;5.33;;;4.00;;
10497;SDS011;5296;51.060;13.750;2023-01-19T10:41:04;6.50;;;5.07;;
10497;SDS011;5296;51.060;13.750;2023-01-19T10:46:15;5.60;;;4.67;;
10497;SDS011;5296;51.060;13.750;2023-01-19T10:51:22;5.63;;;5.00;;
10497;SDS011;5296;51.060;13.750;2023-01-19T10:56:33;7.20;;;4.60;;
10497;SDS011;5296;51.060;13.750;2023-01-19T11:01:36;8.70;;;4.63;;
10497;SDS011;5296;51.060;13.750;2023-01-19T11:06:38;4.87;;;4.33;;
10497;SDS011;5296;51.060;13.750;2023-01-19T11:11:41;5.07;;;4.33;;
10497;SDS011;5296;51.060;13.750;2023-01-19T11:16:45;10.30;;;4.77;;
10497;SDS011;5296;51.060;13.750;2023-01-19T11:21:51;4.93;;;4.43;;
10497;SDS011;5296;51.060;13.750;2023-01-19T11:26:54;4.80;;;4.20;;
10497;SDS011;5296;51.060;13.750;2023-01-19T11:32:09;5.80;;;4.37;;
10497;SDS011;5296;51.060;13.750;2023-01-19T11:42:17;5.37;;;4.70;;
10497;SDS011;5296;51.060;13.750;2023-01-19T11:47:24;5.47;;;4.47;;
10497;SDS011;5296;51.060;13.750;2023-01-19T11:52:44;5.40;;;4.63;;
10497;SDS011;5296;51.060;13.750;2023-01-19T11:57:58;8.57;;;4.40;;
10497;SDS011;5296;51.060;13.750;2023-01-19T12:03:02;5.30;;;4.10;;
10497;SDS011;5296;51.060;13.750;2023-01-19T12:08:11;4.97;;;4.00;;
10497;SDS011;5296;51.060;13.750;2023-01-19T12:13:19;5.43;;;4.33;;
10497;SDS011;5296;51.060;13.750;2023-01-19T12:18:23;7.80;;;4.23;;
10497;SDS011;5296;51.060;13.750;2023-01-19T12:28:29;6.27;;;4.90;;
10497;SDS011;5296;51.060;13.750;2023-01-19T12:33:36;8.07;;;4.70;;
10497;SDS011;5296;51.060;13.750;2023-01-19T12:54:28;5.33;;;4.33;;
10497;SDS011;5296;51.060;13.750;2023-01-19T12:59:32;4.80;;;4.30;;
10497;SDS011;5296;51.060;13.750;2023-01-19T13:04:36;4.70;;;4.07;;
10497;SDS011;5296;51.060;13.750;2023-01-19T13:09:38;6.57;;;4.30;;
10497;SDS011;5296;51.060;13.750;2023-01-19T13:14:40;18.17;;;7.47;;
10497;SDS011;5296;51.060;13.750;2023-01-19T13:19:44;5.80;;;3.63;;
10497;SDS011;5296;51.060;13.750;2023-01-19T13:25:06;4.50;;;3.33;;
10497;SDS011;5296;51.060;13.750;2023-01-19T13:30:11;4.57;;;3.40;;
10497;SDS011;5296;51.060;13.750;2023-01-19T13:35:17;3.27;;;2.97;;
10497;SDS011;5296;51.060;13.750;2023-01-19T13:40:20;4.63;;;3.47;;
10497;SDS011;5296;51.060;13.750;2023-01-19T13:45:28;4.00;;;3.30;;
10497;SDS011;5296;51.060;13.750;2023-01-19T13:50:35;4.33;;;3.87;;
10497;SDS011;5296;51.060;13.750;2023-01-19T13:55:40;5.43;;;3.93;;
10497;SDS011;5296;51.060;13.750;2023-01-19T14:00:44;5.50;;;3.90;;
10497;SDS011;5296;51.060;13.750;2023-01-19T14:05:48;4.63;;;3.60;;
10497;SDS011;5296;51.060;13.750;2023-01-19T14:16:15;5.77;;;3.43;;
10497;SDS011;5296;51.060;13.750;2023-01-19T14:21:17;3.97;;;3.57;;
10497;SDS011;5296;51.060;13.750;2023-01-19T14:37:26;7.90;;;4.90;;
10497;SDS011;5296;51.060;13.750;2023-01-19T14:42:33;5.57;;;4.50;;
10497;SDS011;5296;51.060;13.750;2023-01-19T14:47:38;6.73;;;5.00;;
10497;SDS011;5296;51.060;13.750;2023-01-19T14:52:41;6.77;;;4.67;;
10497;SDS011;5296;51.060;13.750;2023-01-19T14:57:50;4.50;;;3.73;;
10497;SDS011;5296;51.060;13.750;2023-01-19T15:02:51;5.37;;;4.40;;
10497;SDS011;5296;51.060;13.750;2023-01-19T15:07:53;5.20;;;4.40;;
10497;SDS011;5296;51.060;13.750;2023-01-19T15:12:55;5.17;;;4.30;;
10497;SDS011;5296;51.060;13.750;2023-01-19T15:17:57;5.50;;;3.93;;
10497;SDS011;5296;51.060;13.750;2023-01-19T15:23:00;5.33;;;4.37;;
10497;SDS011;5296;51.060;13.750;2023-01-19T15:28:04;5.40;;;4.10;;
10497;SDS011;5296;51.060;13.750;2023-01-19T15:33:16;5.87;;;4.50;;
10497;SDS011;5296;51.060;13.750;2023-01-19T15:38:20;5.00;;;4.40;;
10497;SDS011;5296;51.060;13.750;2023-01-19T15:43:22;5.13;;;4.20;;
10497;SDS011;5296;51.060;13.750;2023-01-19T15:48:24;6.30;;;4.93;;
10497;SDS011;5296;51.060;13.750;2023-01-19T15:53:25;8.00;;;4.50;;
10497;SDS011;5296;51.060;13.750;2023-01-19T15:58:28;7.27;;;4.90;;
10497;SDS011;5296;51.060;13.750;2023-01-19T16:03:29;8.13;;;5.43;;
10497;SDS011;5296;51.060;13.750;2023-01-19T16:08:31;8.60;;;5.10;;
10497;SDS011;5296;51.060;13.750;2023-01-19T16:13:32;6.93;;;5.20;;
10497;SDS011;5296;51.060;13.750;2023-01-19T16:18:34;6.30;;;5.20;;
10497;SDS011;5296;51.060;13.750;2023-01-19T16:23:36;6.30;;;5.60;;
10497;SDS011;5296;51.060;13.750;2023-01-19T16:28:38;5.60;;;5.00;;
10497;SDS011;5296;51.060;13.750;2023-01-19T16:33:39;6.60;;;5.23;;
10497;SDS011;5296;51.060;13.750;2023-01-19T16:38:41;9.43;;;5.73;;
10497;SDS011;5296;51.060;13.750;2023-01-19T16:43:43;6.73;;;5.10;;
10497;SDS011;5296;51.060;13.750;2023-01-19T16:48:44;7.40;;;5.30;;
10497;SDS011;5296;51.060;13.750;2023-01-19T16:53:47;8.37;;;5.57;;
10497;SDS011;5296;51.060;13.750;2023-01-19T16:58:53;10.70;;;8.70;;
10497;SDS011;5296;51.060;13.750;2023-01-19T17:03:55;6.83;;;6.13;;
10497;SDS011;5296;51.060;13.750;2023-01-19T17:08:57;5.83;;;5.20;;
10497;SDS011;5296;51.060;13.750;2023-01-19T17:14:00;5.77;;;5.03;;
10497;SDS011;5296;51.060;13.750;2023-01-19T17:19:04;8.57;;;6.50;;
10497;SDS011;5296;51.060;13.750;2023-01-19T17:24:06;8.13;;;5.37;;
10497;SDS011;5296;51.060;13.750;2023-01-19T17:29:08;9.40;;;5.60;;
10497;SDS011;5296;51.060;13.750;2023-01-19T17:34:10;5.67;;;5.07;;
10497;SDS011;5296;51.060;13.750;2023-01-19T17:39:12;9.17;;;5.50;;
10497;SDS011;5296;51.060;13.750;2023-01-19T17:44:15;6.03;;;5.27;;
10497;SDS011;5296;51.060;13.750;2023-01-19T17:49:17;6.43;;;5.47;;
10497;SDS011;5296;51.060;13.750;2023-01-19T17:54:19;5.53;;;4.83;;
10497;SDS011;5296;51.060;13.750;2023-01-19T17:59:21;6.53;;;5.27;;
10497;SDS011;5296;51.060;13.750;2023-01-19T18:04:22;5.20;;;4.70;;
10497;SDS011;5296;51.060;13.750;2023-01-19T18:09:24;5.83;;;5.23;;
10497;SDS011;5296;51.060;13.750;2023-01-19T18:14:26;6.20;;;5.13;;
10497;SDS011;5296;51.060;13.750;2023-01-19T18:19:27;6.33;;;5.23;;
10497;SDS011;5296;51.060;13.750;2023-01-19T18:24:29;6.37;;;4.80;;
10497;SDS011;5296;51.060;13.750;2023-01-19T18:29:31;6.47;;;5.23;;
10497;SDS011;5296;51.060;13.750;2023-01-19T18:34:32;6.13;;;4.60;;
10497;SDS011;5296;51.060;13.750;2023-01-19T18:39:34;6.20;;;4.63;;
10497;SDS011;5296;51.060;13.750;2023-01-19T18:44:36;6.37;;;5.60;;
10497;SDS011;5296;51.060;13.750;2023-01-19T18:49:38;7.10;;;5.90;;
10497;SDS011;5296;51.060;13.750;2023-01-19T18:54:39;7.00;;;5.50;;
10497;SDS011;5296;51.060;13.750;2023-01-19T18:59:41;9.13;;;7.27;;
10497;SDS011;5296;51.060;13.750;2023-01-19T19:04:44;10.73;;;7.80;;
10497;SDS011;5296;51.060;13.750;2023-01-19T19:09:45;7.83;;;6.20;;
10497;SDS011;5296;51.060;13.750;2023-01-19T19:14:47;9.00;;;6.67;;
10497;SDS011;5296;51.060;13.750;2023-01-19T19:19:48;7.63;;;6.30;;
10497;SDS011;5296;51.060;13.750;2023-01-19T19:24:50;7.07;;;5.63;;
10497;SDS011;5296;51.060;13.750;2023-01-19T19:29:52;8.40;;;6.80;;
10497;SDS011;5296;51.060;13.750;2023-01-19T19:34:54;8.70;;;7.30;;
10497;SDS011;5296;51.060;13.750;2023-01-19T19:39:59;8.03;;;6.87;;
10497;SDS011;5296;51.060;13.750;2023-01-19T19:45:01;8.60;;;6.93;;
10497;SDS011;5296;51.060;13.750;2023-01-19T19:50:04;8.77;;;7.80;;
10497;SDS011;5296;51.060;13.750;2023-01-19T19:55:06;9.73;;;8.27;;
10497;SDS011;5296;51.060;13.750;2023-01-19T20:00:09;9.33;;;8.10;;
10497;SDS011;5296;51.060;13.750;2023-01-19T20:05:11;11.60;;;8.67;;
10497;SDS011;5296;51.060;13.750;2023-01-19T20:10:13;10.83;;;8.20;;
10497;SDS011;5296;51.060;13.750;2023-01-19T20:15:15;10.50;;;8.03;;
10497;SDS011;5296;51.060;13.750;2023-01-19T20:20:17;10.37;;;7.70;;
10497;SDS011;5296;51.060;13.750;2023-01-19T20:25:18;7.90;;;6.93;;
10497;SDS011;5296;51.060;13.750;2023-01-19T20:30:20;7.70;;;6.90;;
10497;SDS011;5296;51.060;13.750;2023-01-19T20:35:22;8.33;;;6.57;;
10497;SDS011;5296;51.060;13.750;2023-01-19T20:40:24;9.07;;;7.27;;
10497;SDS011;5296;51.060;13.750;2023-01-19T20:45:25;9.27;;;6.47;;
10497;SDS011;5296;51.060;13.750;2023-01-19T20:50:27;8.47;;;7.20;;
10497;SDS011;5296;51.060;13.750;2023-01-19T20:55:29;7.67;;;6.23;;
10497;SDS011;5296;51.060;13.750;2023-01-19T21:00:30;8.57;;;6.70;;
10497;SDS011;5296;51.060;13.750;2023-01-19T21:05:32;9.33;;;7.00;;
10497;SDS011;5296;51.060;13.750;2023-01-19T21:10:34;7.70;;;6.90;;
10497;SDS011;5296;51.060;13.750;2023-01-19T21:15:36;7.97;;;6.77;;
10497;SDS011;5296;51.060;13.750;2023-01-19T21:20:37;7.77;;;6.73;;
10497;SDS011;5296;51.060;13.750;2023-01-19T21:25:46;8.80;;;6.97;;
10497;SDS011;5296;51.060;13.750;2023-01-19T21:31:05;8.63;;;7.27;;
10497;SDS011;5296;51.060;13.750;2023-01-19T21:36:11;11.40;;;7.07;;
10497;SDS011;5296;51.060;13.750;2023-01-19T21:41:12;10.20;;;7.60;;
10497;SDS011;5296;51.060;13.750;2023-01-19T21:46:17;9.93;;;7.30;;
10497;SDS011;5296;51.060;13.750;2023-01-19T21:51:20;9.10;;;7.27;;
10497;SDS011;5296;51.060;13.750;2023-01-19T21:56:22;9.37;;;7.60;;
10497;SDS011;5296;51.060;13.750;2023-01-19T22:01:23;8.37;;;7.43;;
10497;SDS011;5296;51.060;13.750;2023-01-19T22:06:26;9.33;;;7.67;;
10497;SDS011;5296;51.060;13.750;2023-01-19T22:11:28;9.13;;;7.13;;
10497;SDS011;5296;51.060;13.750;2023-01-19T22:16:30;10.23;;;7.40;;
10497;SDS011;5296;51.060;13.750;2023-01-19T22:21:32;10.00;;;7.67;;
10497;SDS011;5296;51.060;13.750;2023-01-19T22:26:36;9.47;;;7.40;;
10497;SDS011;5296;51.060;13.750;2023-01-19T22:31:38;8.77;;;7.00;;
10497;SDS011;5296;51.060;13.750;2023-01-19T22:36:40;10.83;;;7.83;;
10497;SDS011;5296;51.060;13.750;2023-01-19T22:41:42;8.77;;;7.60;;
10497;SDS011;5296;51.060;13.750;2023-01-19T22:46:45;12.27;;;8.10;;
10497;SDS011;5296;51.060;13.750;2023-01-19T22:51:48;11.47;;;8.77;;
10497;SDS011;5296;51.060;13.750;2023-01-19T22:56:49;8.97;;;7.87;;
10497;SDS011;5296;51.060;13.750;2023-01-19T23:01:51;11.70;;;8.10;;
10497;SDS011;5296;51.060;13.750;2023-01-19T23:06:53;11.70;;;8.37;;
10497;SDS011;5296;51.060;13.750;2023-01-19T23:11:54;9.27;;;8.10;;
10497;SDS011;5296;51.060;13.750;2023-01-19T23:16:56;9.80;;;8.00;;
10497;SDS011;5296;51.060;13.750;2023-01-19T23:21:58;9.43;;;8.17;;
10497;SDS011;5296;51.060;13.750;2023-01-19T23:26:59;8.97;;;8.03;;
10497;SDS011;5296;51.060;13.750;2023-01-19T23:32:02;10.37;;;8.43;;
10497;SDS011;5296;51.060;13.750;2023-01-19T23:37:04;9.87;;;7.60;;
10497;SDS011;5296;51.060;13.750;2023-01-19T23:42:05;10.03;;;8.27;;
10497;SDS011;5296;51.060;13.750;2023-01-19T23:47:08;9.70;;;8.63;;
10497;SDS011;5296;51.060;13.750;2023-01-19T23:52:09;11.00;;;8.63;;
10497;SDS011;5296;51.060;13.750;2023-01-19T23:57:11;9.27;;;8.30;;
